Time;durP1;ratioP1;P1;durP2;ratioP2;P2;SDS_P1;SDS_P2;PMS_P1;PMS_P2;Temp;Humidity;BMP_temperature;BMP_pressure;BME280_temperature;BME280_humidity;BME280_pressure;Samples;Min_cycle;Max_cycle;Signal;HPM_P1;HPM_P2
2022/09/15 00:00:51;;;;;;;;;;;24.20;48.20;23.00;100151.00;;;;5105645;28;19915;-67
2022/09/15 00:03:37;;;;;;;;;;;24.20;48.20;23.00;100158.00;;;;5086609;27;19993;-67
2022/09/15 00:06:23;;;;;;;;;;;24.20;48.20;23.00;100154.00;;;;5100225;27;20001;-67
2022/09/15 00:09:09;;;;;;;;;;;24.20;48.10;23.00;100155.00;;;;5101384;27;19915;-67
2022/09/15 00:11:55;;;;;;;;;;;24.20;48.20;23.00;100154.00;;;;5105338;27;20487;-67
2022/09/15 00:14:41;;;;;;;;;;;24.20;48.20;23.00;100164.00;;;;5106914;27;19919;-67
2022/09/15 00:17:27;;;;;;;;;;;24.20;48.20;23.00;100175.00;;;;5103147;27;19923;-67
2022/09/15 00:20:13;;;;;;;;;;;24.20;48.20;23.00;100175.00;;;;5100499;27;19920;-67
2022/09/15 00:22:59;;;;;;;;;;;24.10;48.10;23.00;100177.00;;;;5107985;27;19941;-67
2022/09/15 00:25:47;;;;;;;;;;;24.20;48.10;23.00;100182.00;;;;5077546;28;19926;-67
2022/09/15 00:28:33;;;;;;;;;;;24.10;48.10;23.00;100180.00;;;;5089322;27;19992;-67
2022/09/15 00:31:20;;;;;;;;;;;24.20;48.10;23.00;100183.00;;;;5102609;27;19911;-67
2022/09/15 00:34:06;;;;;;;;;;;24.10;48.10;23.00;100182.00;;;;5086007;28;19916;-67
2022/09/15 00:36:52;;;;;;;;;;;24.10;48.10;23.00;100191.00;;;;5099002;28;19915;-67
2022/09/15 00:39:38;;;;;;;;;;;24.10;48.10;23.00;100185.00;;;;5098615;28;19911;-67
2022/09/15 00:42:24;;;;;;;;;;;24.10;48.10;23.00;100184.00;;;;5094414;27;19926;-67
2022/09/15 00:45:13;;;;;;;;;;;24.00;48.10;22.90;100180.00;;;;5101511;28;19920;-67
2022/09/15 00:47:59;;;;;;;;;;;24.10;48.10;22.90;100180.00;;;;5090496;27;19938;-66
2022/09/15 00:50:53;;;;;;;;;;;24.00;48.00;22.90;100185.00;;;;5090539;27;19916;-66
2022/09/15 00:53:39;;;;;;;;;;;24.00;48.00;22.90;100188.00;;;;5101533;28;20003;-67
2022/09/15 00:56:25;;;;;;;;;;;24.00;48.00;22.90;100184.00;;;;5090704;28;19912;-67
2022/09/15 00:59:22;;;;;;;;;;;24.10;48.10;22.90;100186.00;;;;5102629;27;20341;-67
2022/09/15 01:02:12;;;;;;;;;;;24.00;48.00;22.90;100183.00;;;;5102854;27;19919;-66
2022/09/15 01:04:59;;;;;;;;;;;24.00;48.00;22.90;100177.00;;;;5087404;27;19916;-67
2022/09/15 01:08:06;;;;;;;;;;;24.00;48.00;22.90;100180.00;;;;5081500;28;19919;-67
2022/09/15 01:10:52;;;;;;;;;;;24.00;48.00;22.90;100172.00;;;;5078912;28;19934;-67
2022/09/15 01:13:38;;;;;;;;;;;24.00;48.10;22.90;100168.00;;;;5098509;27;20311;-67
2022/09/15 01:16:41;;;;;;;;;;;24.10;48.10;22.90;100171.00;;;;5089322;28;20392;-67
2022/09/15 01:19:46;;;;;;;;;;;24.00;48.00;22.90;100173.00;;;;5100639;28;19912;-67
2022/09/15 01:22:34;;;;;;;;;;;24.00;48.00;22.90;100173.00;;;;5105164;27;20249;-67
2022/09/15 01:25:34;;;;;;;;;;;24.00;48.00;22.90;100176.00;;;;5105443;28;19918;-67
2022/09/15 01:28:47;;;;;;;;;;;24.00;48.00;22.90;100173.00;;;;5107054;28;19939;-67
2022/09/15 01:33:02;;;;;;;;;;;24.00;48.00;22.90;100165.00;;;;5103462;28;20153;-67
2022/09/15 01:35:19;;;;;;;;;;;24.00;48.00;22.90;100168.00;;;;5101816;28;19958;-67
2022/09/15 01:38:44;;;;;;;;;;;24.00;48.00;22.90;100167.00;;;;5092264;28;20483;-67
2022/09/15 01:41:36;;;;;;;;;;;24.00;48.00;22.90;100172.00;;;;5095226;28;19920;-67
2022/09/15 01:44:27;;;;;;;;;;;24.10;48.10;22.90;100167.00;;;;5070011;28;19917;-67
2022/09/15 01:47:14;;;;;;;;;;;24.00;48.00;22.90;100166.00;;;;5091477;28;20422;-67
2022/09/15 01:50:05;;;;;;;;;;;24.00;48.00;22.90;100165.00;;;;5079325;28;19912;-67
2022/09/15 01:52:51;;;;;;;;;;;23.90;48.00;22.90;100175.00;;;;5102463;28;19957;-67
2022/09/15 01:55:39;;;;;;;;;;;24.00;48.00;22.90;100176.00;;;;5090408;28;19919;-67
2022/09/15 01:58:25;;;;;;;;;;;24.00;48.00;22.90;100178.00;;;;5088356;27;19966;-67
2022/09/15 02:01:14;;;;;;;;;;;24.00;48.00;22.90;100170.00;;;;5116539;27;19926;-67
2022/09/15 02:04:04;;;;;;;;;;;24.00;48.00;22.90;100168.00;;;;5109914;27;19958;-67
2022/09/15 02:07:05;;;;;;;;;;;24.10;48.10;22.90;100179.00;;;;5091188;27;19911;-67
2022/09/15 02:10:00;;;;;;;;;;;24.00;48.00;22.90;100176.00;;;;5093341;27;19935;-67
2022/09/15 02:12:50;;;;;;;;;;;24.00;48.00;22.90;100170.00;;;;5091789;27;19911;-67
2022/09/15 02:15:41;;;;;;;;;;;24.10;48.10;22.90;100171.00;;;;5081096;27;19922;-67
2022/09/15 02:18:31;;;;;;;;;;;24.00;48.00;22.90;100173.00;;;;5107826;27;19918;-67
2022/09/15 02:21:20;;;;;;;;;;;24.00;48.00;22.90;100177.00;;;;5094597;27;19916;-67
2022/09/15 02:24:17;;;;;;;;;;;24.00;48.00;22.90;100179.00;;;;5084993;28;19923;-67
2022/09/15 02:27:04;;;;;;;;;;;24.00;48.00;22.90;100166.00;;;;5092671;28;19924;-67
2022/09/15 02:29:51;;;;;;;;;;;24.00;48.00;22.90;100170.00;;;;5103952;27;20349;-67
2022/09/15 02:32:38;;;;;;;;;;;23.90;47.90;22.90;100168.00;;;;5076145;28;19911;-67
2022/09/15 02:35:25;;;;;;;;;;;24.00;47.90;22.90;100171.00;;;;5080094;28;19911;-67
2022/09/15 02:38:11;;;;;;;;;;;24.00;48.00;22.90;100172.00;;;;5085499;28;20385;-67
2022/09/15 02:40:57;;;;;;;;;;;24.10;48.00;22.90;100170.00;;;;5073888;28;20358;-67
2022/09/15 02:43:48;;;;;;;;;;;24.10;48.00;22.90;100170.00;;;;5073421;28;20224;-67
2022/09/15 02:46:34;;;;;;;;;;;24.00;47.90;22.90;100165.00;;;;5103926;27;20643;-67
2022/09/15 02:49:20;;;;;;;;;;;24.00;47.90;22.90;100169.00;;;;5095320;28;20354;-67
2022/09/15 02:52:06;;;;;;;;;;;24.00;47.90;22.90;100167.00;;;;5100312;27;19919;-67
2022/09/15 02:54:52;;;;;;;;;;;24.00;48.00;22.90;100171.00;;;;5102448;27;20412;-67
2022/09/15 02:57:38;;;;;;;;;;;24.00;48.60;22.90;100167.00;;;;5090487;28;19912;-67
2022/09/15 03:00:24;;;;;;;;;;;23.90;47.90;22.80;100165.00;;;;5102319;27;19978;-67
2022/09/15 03:03:11;;;;;;;;;;;24.00;47.90;22.80;100174.00;;;;5093176;28;20448;-67
2022/09/15 03:06:16;;;;;;;;;;;24.00;47.90;22.90;100174.00;;;;5098921;28;19919;-67
2022/09/15 03:09:06;;;;;;;;;;;24.00;48.00;22.90;100174.00;;;;5095172;28;19916;-67
2022/09/15 03:11:52;;;;;;;;;;;24.00;47.90;22.90;100182.00;;;;5099674;28;20335;-67
2022/09/15 03:14:38;;;;;;;;;;;24.00;48.00;22.80;100183.00;;;;5100512;27;20364;-67
2022/09/15 03:17:24;;;;;;;;;;;24.00;47.90;22.90;100187.00;;;;5096515;28;19923;-67
2022/09/15 03:20:11;;;;;;;;;;;24.00;48.00;22.80;100187.00;;;;5101085;27;19923;-66
2022/09/15 03:22:57;;;;;;;;;;;24.00;48.00;22.90;100189.00;;;;5093492;28;19974;-67
2022/09/15 03:25:44;;;;;;;;;;;24.00;48.00;22.80;100186.00;;;;5095443;28;19918;-67
2022/09/15 03:28:30;;;;;;;;;;;24.00;48.00;22.80;100182.00;;;;5100075;27;19919;-67
2022/09/15 03:31:16;;;;;;;;;;;24.00;47.90;22.90;100187.00;;;;5091315;27;19916;-67
2022/09/15 03:34:02;;;;;;;;;;;24.00;48.00;22.90;100192.00;;;;5099312;27;19948;-67
2022/09/15 03:36:48;;;;;;;;;;;23.90;47.90;22.80;100191.00;;;;5100283;27;19965;-67
2022/09/15 03:39:34;;;;;;;;;;;24.00;48.00;22.80;100190.00;;;;5101865;27;19969;-67
2022/09/15 03:42:20;;;;;;;;;;;24.00;47.90;22.80;100189.00;;;;5098350;27;19922;-67
2022/09/15 03:45:06;;;;;;;;;;;24.00;47.90;22.80;100195.00;;;;5086203;28;19946;-67
2022/09/15 03:47:52;;;;;;;;;;;24.00;47.90;22.90;100188.00;;;;5099986;27;19912;-67
2022/09/15 03:50:38;;;;;;;;;;;24.00;47.90;22.80;100182.00;;;;5094569;27;19912;-67
2022/09/15 03:53:24;;;;;;;;;;;24.00;47.90;22.80;100173.00;;;;5095680;27;19926;-67
2022/09/15 03:56:30;;;;;;;;;;;24.00;48.10;22.80;100178.00;;;;5100419;27;19916;-67
2022/09/15 03:59:17;;;;;;;;;;;24.00;48.00;22.80;100179.00;;;;5083278;28;20361;-67
2022/09/15 04:02:03;;;;;;;;;;;24.00;47.90;22.80;100182.00;;;;5103751;27;19966;-67
2022/09/15 04:04:49;;;;;;;;;;;24.00;47.90;22.90;100173.00;;;;5098979;27;19919;-67
2022/09/15 04:07:35;;;;;;;;;;;24.00;47.90;22.90;100167.00;;;;5106724;27;19918;-67
2022/09/15 04:10:23;;;;;;;;;;;24.00;47.90;22.90;100173.00;;;;5092957;27;19958;-67
2022/09/15 04:13:27;;;;;;;;;;;24.10;48.00;22.80;100172.00;;;;5102885;27;19998;-67
2022/09/15 04:16:18;;;;;;;;;;;24.00;47.90;22.80;100178.00;;;;5099623;28;19978;-67
2022/09/15 04:19:04;;;;;;;;;;;24.00;47.90;22.90;100180.00;;;;5095323;27;19912;-67
2022/09/15 04:21:51;;;;;;;;;;;24.00;47.90;22.90;100182.00;;;;5097807;27;20314;-67
2022/09/15 04:24:37;;;;;;;;;;;24.00;47.90;22.90;100186.00;;;;5093819;27;19915;-67
2022/09/15 04:27:23;;;;;;;;;;;24.00;48.00;22.90;100191.00;;;;5103356;27;20366;-67
2022/09/15 04:30:09;;;;;;;;;;;24.00;47.90;22.90;100189.00;;;;5091015;28;19920;-67
2022/09/15 04:32:55;;;;;;;;;;;24.00;47.90;22.80;100189.00;;;;5088521;28;19949;-67
2022/09/15 04:35:41;;;;;;;;;;;24.00;47.90;22.90;100187.00;;;;5098330;28;20288;-67
2022/09/15 04:38:28;;;;;;;;;;;24.00;47.90;22.80;100195.00;;;;5100716;27;20232;-67
2022/09/15 04:41:14;;;;;;;;;;;24.00;47.90;22.90;100188.00;;;;5094334;28;19920;-67
2022/09/15 04:44:00;;;;;;;;;;;24.00;48.00;22.80;100193.00;;;;5092575;28;19926;-67
2022/09/15 04:46:47;;;;;;;;;;;24.00;47.90;22.80;100196.00;;;;5095433;27;20302;-66
2022/09/15 04:49:33;;;;;;;;;;;24.00;47.90;22.80;100198.00;;;;5092988;28;20017;-67
2022/09/15 04:52:19;;;;;;;;;;;24.00;47.90;22.80;100198.00;;;;5098106;27;19995;-67
2022/09/15 04:55:05;;;;;;;;;;;24.00;47.90;22.80;100193.00;;;;5103690;27;19912;-67
2022/09/15 04:57:51;;;;;;;;;;;24.00;47.90;22.80;100200.00;;;;5094208;27;20431;-67
2022/09/15 05:00:42;;;;;;;;;;;24.00;47.90;22.80;100194.00;;;;5092017;28;19967;-67
2022/09/15 05:03:28;;;;;;;;;;;24.00;47.90;22.80;100195.00;;;;5102957;27;19911;-67
2022/09/15 05:06:16;;;;;;;;;;;24.00;47.90;22.80;100196.00;;;;5100457;27;19935;-67
2022/09/15 05:09:03;;;;;;;;;;;24.00;47.90;22.90;100196.00;;;;5094861;27;20866;-67
2022/09/15 05:11:49;;;;;;;;;;;24.00;48.00;22.90;100203.00;;;;5105917;27;19918;-67
2022/09/15 05:14:35;;;;;;;;;;;24.00;47.90;22.90;100203.00;;;;5102458;28;19915;-67
2022/09/15 05:17:21;;;;;;;;;;;24.00;47.90;22.90;100204.00;;;;5094460;28;21218;-67
2022/09/15 05:20:07;;;;;;;;;;;24.00;47.90;22.90;100201.00;;;;5095239;28;19916;-66
2022/09/15 05:22:53;;;;;;;;;;;24.00;47.90;22.90;100203.00;;;;5097219;28;19915;-67
2022/09/15 05:25:39;;;;;;;;;;;24.00;48.00;22.90;100207.00;;;;5100679;28;19911;-67
2022/09/15 05:28:25;;;;;;;;;;;24.00;48.00;22.90;100206.00;;;;5100173;28;19985;-67
2022/09/15 05:31:17;;;;;;;;;;;24.00;48.00;22.90;100208.00;;;;5095531;27;19919;-67
2022/09/15 05:34:04;;;;;;;;;;;24.00;48.00;22.80;100205.00;;;;5077593;28;19934;-67
2022/09/15 05:36:50;;;;;;;;;;;24.00;47.90;22.80;100207.00;;;;5109863;27;19918;-67
2022/09/15 05:39:36;;;;;;;;;;;24.00;47.90;22.80;100210.00;;;;5110092;27;19973;-67
2022/09/15 05:42:22;;;;;;;;;;;24.00;48.00;22.80;100210.00;;;;5103457;27;19919;-67
2022/09/15 05:45:08;;;;;;;;;;;24.00;47.90;22.80;100209.00;;;;5106090;27;19912;-67
2022/09/15 05:47:54;;;;;;;;;;;24.00;48.00;22.80;100202.00;;;;5089650;27;19925;-67
2022/09/15 05:50:47;;;;;;;;;;;24.00;47.90;22.80;100208.00;;;;5110711;27;19916;-67
2022/09/15 05:53:34;;;;;;;;;;;24.00;48.00;22.80;100209.00;;;;5088217;27;19915;-67
2022/09/15 05:56:20;;;;;;;;;;;24.10;48.00;22.80;100204.00;;;;5109717;27;19918;-67
2022/09/15 05:59:06;;;;;;;;;;;24.00;48.00;22.80;100210.00;;;;5088115;28;19915;-67
2022/09/15 06:01:52;;;;;;;;;;;24.00;48.00;22.80;100211.00;;;;5102684;27;19923;-67
2022/09/15 06:04:38;;;;;;;;;;;24.00;48.00;22.80;100208.00;;;;5107301;27;19911;-67
2022/09/15 06:07:24;;;;;;;;;;;24.00;48.00;22.80;100211.00;;;;5098806;27;19920;-67
2022/09/15 06:10:10;;;;;;;;;;;24.00;48.00;22.80;100215.00;;;;5109273;27;19912;-67
2022/09/15 06:12:56;;;;;;;;;;;24.00;48.00;22.80;100209.00;;;;5103964;27;19918;-67
2022/09/15 06:15:42;;;;;;;;;;;24.00;48.00;22.80;100206.00;;;;5101989;27;19916;-67
2022/09/15 06:18:28;;;;;;;;;;;24.00;48.00;22.80;100208.00;;;;5110304;27;20330;-67
2022/09/15 06:21:15;;;;;;;;;;;24.00;48.00;22.80;100216.00;;;;5104174;27;19919;-66
2022/09/15 06:24:03;;;;;;;;;;;24.00;48.00;22.80;100210.00;;;;5103623;28;19916;-67
2022/09/15 06:26:49;;;;;;;;;;;24.00;48.00;22.80;100210.00;;;;5099947;27;20019;-67
2022/09/15 06:29:35;;;;;;;;;;;24.00;48.00;22.80;100217.00;;;;5112229;27;20365;-67
2022/09/15 06:32:21;;;;;;;;;;;24.00;48.00;22.80;100222.00;;;;5105957;27;19919;-67
2022/09/15 06:35:07;;;;;;;;;;;24.00;48.00;22.80;100226.00;;;;5099183;27;19919;-67
2022/09/15 06:37:53;;;;;;;;;;;24.00;48.00;22.80;100226.00;;;;5091526;27;19924;-67
2022/09/15 06:40:39;;;;;;;;;;;24.00;48.00;22.80;100233.00;;;;5094805;27;20198;-67
2022/09/15 06:43:25;;;;;;;;;;;23.90;48.00;22.80;100225.00;;;;5100356;27;19912;-67
2022/09/15 06:46:15;;;;;;;;;;;24.00;48.00;22.80;100232.00;;;;5109513;27;19915;-67
2022/09/15 06:49:01;;;;;;;;;;;24.10;48.10;22.80;100239.00;;;;5102657;27;19912;-67
2022/09/15 06:51:47;;;;;;;;;;;24.00;48.00;22.80;100248.00;;;;5090285;27;19913;-67
2022/09/15 06:54:33;;;;;;;;;;;24.00;48.00;22.80;100245.00;;;;5085606;28;19920;-66
2022/09/15 06:57:19;;;;;;;;;;;24.00;48.00;22.80;100248.00;;;;5104261;27;19918;-67
2022/09/15 07:00:06;;;;;;;;;;;24.00;48.00;22.80;100249.00;;;;5095531;27;19916;-67
2022/09/15 07:02:52;;;;;;;;;;;24.00;48.00;22.80;100246.00;;;;5081750;27;19950;-67
2022/09/15 07:05:39;;;;;;;;;;;24.00;48.00;22.80;100245.00;;;;5101963;27;19915;-67
2022/09/15 07:08:25;;;;;;;;;;;24.00;48.00;22.80;100254.00;;;;5096438;27;20320;-67
2022/09/15 07:11:11;;;;;;;;;;;24.00;48.00;22.80;100246.00;;;;5103668;27;19912;-67
2022/09/15 07:13:57;;;;;;;;;;;24.00;48.00;22.80;100252.00;;;;5082908;28;19916;-67
2022/09/15 07:16:43;;;;;;;;;;;23.90;48.00;22.80;100250.00;;;;5099475;27;19916;-67
2022/09/15 07:19:29;;;;;;;;;;;24.00;48.00;22.80;100255.00;;;;5089052;27;19916;-67
2022/09/15 07:22:15;;;;;;;;;;;24.00;48.00;22.80;100262.00;;;;5102471;27;20329;-67
2022/09/15 07:25:01;;;;;;;;;;;24.00;48.10;22.80;100259.00;;;;5100033;27;20400;-67
2022/09/15 07:27:47;;;;;;;;;;;23.90;48.00;22.80;100253.00;;;;5095862;27;19912;-67
2022/09/15 07:30:33;;;;;;;;;;;24.00;48.00;22.80;100253.00;;;;5103680;27;19919;-67
2022/09/15 07:33:19;;;;;;;;;;;24.10;48.10;22.80;100261.00;;;;5098624;27;19922;-67
2022/09/15 07:36:06;;;;;;;;;;;24.00;48.00;22.80;100267.00;;;;5101220;27;19915;-67
2022/09/15 07:38:52;;;;;;;;;;;24.00;48.00;22.80;100251.00;;;;5084059;27;20026;-67
2022/09/15 07:41:38;;;;;;;;;;;24.00;48.00;22.80;100261.00;;;;5098237;27;19916;-67
2022/09/15 07:44:24;;;;;;;;;;;24.00;48.00;22.80;100264.00;;;;5097074;27;20431;-67
2022/09/15 07:47:10;;;;;;;;;;;24.00;48.00;22.80;100258.00;;;;5098139;27;19916;-66
2022/09/15 07:49:56;;;;;;;;;;;24.10;48.00;22.80;100255.00;;;;5105361;27;19911;-67
2022/09/15 07:52:42;;;;;;;;;;;24.00;48.00;22.80;100263.00;;;;5100323;27;19912;-67
2022/09/15 07:55:29;;;;;;;;;;;24.00;48.00;22.80;100270.00;;;;5094674;27;19923;-67
2022/09/15 07:58:15;;;;;;;;;;;24.10;48.00;22.80;100269.00;;;;5092318;27;19912;-67
2022/09/15 08:01:05;;;;;;;;;;;24.10;48.00;22.80;100254.00;;;;5093062;27;20002;-67
2022/09/15 08:03:51;;;;;;;;;;;24.00;47.90;22.80;100250.00;;;;5090506;28;19938;-67
2022/09/15 08:06:37;;;;;;;;;;;23.90;47.90;22.80;100262.00;;;;5104890;27;19920;-67
2022/09/15 08:09:23;;;;;;;;;;;24.00;47.90;22.80;100270.00;;;;5104635;27;19965;-67
2022/09/15 08:12:09;;;;;;;;;;;24.00;47.90;22.80;100281.00;;;;5109831;27;19916;-67
2022/09/15 08:14:55;;;;;;;;;;;24.00;47.90;22.80;100285.00;;;;5094285;27;19926;-67
2022/09/15 08:17:41;;;;;;;;;;;24.00;47.90;22.80;100287.00;;;;5103458;27;19915;-67
2022/09/15 08:20:27;;;;;;;;;;;24.00;47.90;22.80;100286.00;;;;5093467;27;20330;-67
2022/09/15 08:23:13;;;;;;;;;;;24.00;47.80;22.80;100288.00;;;;5100125;27;19935;-67
2022/09/15 08:25:59;;;;;;;;;;;24.00;47.80;22.80;100288.00;;;;5100446;27;19911;-67
2022/09/15 08:28:45;;;;;;;;;;;24.00;47.80;22.80;100287.00;;;;5096560;27;19915;-67
2022/09/15 08:31:31;;;;;;;;;;;24.00;47.80;22.80;100297.00;;;;5099877;27;19972;-67
2022/09/15 08:34:17;;;;;;;;;;;24.00;47.70;22.80;100295.00;;;;5098145;28;19965;-67
2022/09/15 08:37:03;;;;;;;;;;;24.00;48.40;22.80;100300.00;;;;5100263;27;19969;-67
2022/09/15 08:39:50;;;;;;;;;;;24.00;47.70;22.80;100292.00;;;;5089341;28;19961;-67
2022/09/15 08:42:36;;;;;;;;;;;24.00;47.70;22.80;100302.00;;;;5102322;27;19940;-67
2022/09/15 08:45:34;;;;;;;;;;;24.00;47.60;22.80;100313.00;;;;5081682;28;19912;-67
2022/09/15 08:48:35;;;;;;;;;;;24.00;47.70;22.80;100318.00;;;;5094686;28;19912;-67
2022/09/15 08:51:31;;;;;;;;;;;24.00;47.60;22.80;100303.00;;;;5084497;28;19911;-67
2022/09/15 08:54:25;;;;;;;;;;;24.00;47.60;22.80;100312.00;;;;5076728;27;19911;-67
2022/09/15 08:57:13;;;;;;;;;;;24.00;47.60;22.80;100313.00;;;;5079903;28;19916;-67
2022/09/15 08:59:59;;;;;;;;;;;24.00;47.60;22.70;100316.00;;;;5084077;28;19915;-67
2022/09/15 09:03:14;;;;;;;;;;;24.00;47.50;22.80;100317.00;;;;5093091;27;19918;-67
2022/09/15 09:06:16;;;;;;;;;;;24.00;47.50;22.80;100316.00;;;;5097137;28;19919;-67
2022/09/15 09:09:32;;;;;;;;;;;24.00;47.50;22.80;100326.00;;;;5102702;28;19922;-67
2022/09/15 09:12:46;;;;;;;;;;;24.00;47.50;22.80;100325.00;;;;5096378;27;19916;-67
2022/09/15 09:15:41;;;;;;;;;;;24.00;47.50;22.80;100313.00;;;;5089055;27;19923;-67
2022/09/15 09:18:59;;;;;;;;;;;24.00;47.50;22.80;100318.00;;;;5099684;28;19943;-67
2022/09/15 09:21:50;;;;;;;;;;;24.00;47.50;22.80;100318.00;;;;5104975;28;19916;-67
2022/09/15 09:24:44;;;;;;;;;;;24.00;47.50;22.80;100316.00;;;;5091384;28;19920;-67
2022/09/15 09:27:33;;;;;;;;;;;24.00;47.50;22.80;100316.00;;;;5086917;28;20284;-67
2022/09/15 09:30:22;;;;;;;;;;;24.00;47.50;22.80;100319.00;;;;5099308;28;20361;-67
2022/09/15 09:33:16;;;;;;;;;;;24.00;47.50;22.80;100309.00;;;;5093207;28;19919;-67
2022/09/15 09:36:02;;;;;;;;;;;24.00;47.50;22.80;100314.00;;;;5096676;28;19912;-67
2022/09/15 09:38:48;;;;;;;;;;;24.00;47.50;22.80;100316.00;;;;5080471;28;19914;-67
2022/09/15 09:41:37;;;;;;;;;;;24.00;47.50;22.80;100313.00;;;;5098340;28;19929;-67
2022/09/15 09:44:30;;;;;;;;;;;24.00;47.50;22.80;100313.00;;;;5107128;27;20385;-67
2022/09/15 09:47:16;;;;;;;;;;;24.10;47.50;22.80;100315.00;;;;5085491;28;19932;-67
2022/09/15 09:50:02;;;;;;;;;;;24.10;47.50;22.80;100313.00;;;;5086345;28;19920;-67
2022/09/15 09:52:48;;;;;;;;;;;24.00;47.40;22.80;100307.00;;;;5099452;28;20232;-67
2022/09/15 09:55:34;;;;;;;;;;;24.10;47.40;22.80;100319.00;;;;5103812;28;20313;-67
2022/09/15 09:58:29;;;;;;;;;;;24.10;47.30;22.80;100321.00;;;;5093252;28;19916;-67
2022/09/15 10:01:17;;;;;;;;;;;24.10;47.30;22.80;100311.00;;;;5104562;28;19923;-67
2022/09/15 10:04:29;;;;;;;;;;;24.10;47.30;22.80;100310.00;;;;5093970;28;19916;-67
2022/09/15 10:07:18;;;;;;;;;;;24.10;47.30;22.80;100309.00;;;;5094806;28;19916;-67
2022/09/15 10:10:05;;;;;;;;;;;24.10;47.30;22.80;100306.00;;;;5101441;28;20272;-67
2022/09/15 10:12:54;;;;;;;;;;;24.10;47.30;22.80;100314.00;;;;5079477;28;19915;-67
2022/09/15 10:15:40;;;;;;;;;;;24.20;47.30;22.90;100312.00;;;;5081449;28;19916;-67
2022/09/15 10:18:31;;;;;;;;;;;24.10;47.30;22.90;100312.00;;;;5098485;27;19912;-67
2022/09/15 10:21:21;;;;;;;;;;;24.10;47.20;22.90;100313.00;;;;5098356;27;19962;-67
2022/09/15 10:24:23;;;;;;;;;;;24.10;47.30;22.90;100301.00;;;;5091640;28;20397;-67
2022/09/15 10:27:29;;;;;;;;;;;24.10;47.20;22.90;100307.00;;;;5101017;27;20037;-67
2022/09/15 10:30:15;;;;;;;;;;;24.10;47.20;22.90;100298.00;;;;5105695;27;19919;-67
2022/09/15 10:33:37;;;;;;;;;;;24.10;47.30;22.90;100299.00;;;;5104829;27;19915;-67
2022/09/15 10:36:29;;;;;;;;;;;24.10;47.30;22.90;100299.00;;;;5044513;28;19981;-67
2022/09/15 10:39:47;;;;;;;;;;;24.10;48.00;22.90;100304.00;;;;5077694;27;20258;-67
2022/09/15 10:42:45;;;;;;;;;;;24.10;47.20;22.90;100299.00;;;;5111004;27;19927;-67
2022/09/15 10:45:38;;;;;;;;;;;24.20;47.20;22.90;100293.00;;;;5096302;28;19958;-67
2022/09/15 10:48:27;;;;;;;;;;;24.20;47.20;22.90;100283.00;;;;5087455;27;19915;-67
2022/09/15 10:51:25;;;;;;;;;;;24.20;47.20;22.90;100295.00;;;;5099217;27;19915;-67
2022/09/15 10:54:24;;;;;;;;;;;24.20;47.20;22.90;100287.00;;;;5086439;27;19934;-67
2022/09/15 10:57:14;;;;;;;;;;;24.20;47.10;22.90;100280.00;;;;5099787;27;19912;-67
2022/09/15 11:00:19;;;;;;;;;;;24.20;47.00;22.90;100288.00;;;;5086782;28;20297;-67
2022/09/15 11:03:45;;;;;;;;;;;24.20;46.90;22.90;100291.00;;;;5097984;27;20365;-67
2022/09/15 11:06:39;;;;;;;;;;;24.20;47.00;22.90;100290.00;;;;5093638;28;19919;-67
2022/09/15 11:09:44;;;;;;;;;;;24.10;46.90;22.90;100292.00;;;;5096881;27;19922;-67
2022/09/15 11:12:55;;;;;;;;;;;24.20;46.90;22.90;100291.00;;;;5084115;27;19912;-67
2022/09/15 11:15:56;;;;;;;;;;;24.20;47.00;22.90;100301.00;;;;5093947;27;19920;-67
2022/09/15 11:18:47;;;;;;;;;;;24.20;47.00;22.90;100293.00;;;;5078563;28;19919;-67
2022/09/15 11:21:48;;;;;;;;;;;24.20;47.00;22.90;100299.00;;;;5097008;27;19919;-67
2022/09/15 11:25:01;;;;;;;;;;;24.20;47.00;22.90;100298.00;;;;5095245;27;19911;-67
2022/09/15 11:28:01;;;;;;;;;;;24.20;47.00;23.00;100299.00;;;;5066704;28;19915;-67
2022/09/15 11:31:02;;;;;;;;;;;24.20;47.00;23.00;100295.00;;;;5085915;27;20390;-67
2022/09/15 11:33:54;;;;;;;;;;;24.20;47.00;23.00;100309.00;;;;5069637;27;20308;-66
2022/09/15 11:36:46;;;;;;;;;;;24.20;46.90;23.00;100304.00;;;;5092588;27;19955;-66
2022/09/15 11:39:54;;;;;;;;;;;24.20;46.80;23.00;100303.00;;;;5095759;27;19920;-67
2022/09/15 11:42:48;;;;;;;;;;;24.20;46.80;23.00;100307.00;;;;5084259;28;19916;-67
2022/09/15 11:45:37;;;;;;;;;;;24.20;46.70;22.90;100317.00;;;;5099716;27;20013;-67
2022/09/15 11:48:27;;;;;;;;;;;24.20;46.60;22.90;100315.00;;;;5084594;27;20207;-67
2022/09/15 11:51:14;;;;;;;;;;;24.20;46.60;22.90;100316.00;;;;5085984;28;20404;-66
2022/09/15 11:54:12;;;;;;;;;;;24.20;46.60;22.90;100306.00;;;;5086857;27;19939;-67
2022/09/15 11:56:58;;;;;;;;;;;24.20;46.60;22.90;100311.00;;;;5107127;27;19957;-67
2022/09/15 11:59:54;;;;;;;;;;;24.30;46.60;22.90;100305.00;;;;5088726;28;19915;-67
2022/09/15 12:02:47;;;;;;;;;;;24.30;46.60;22.90;100307.00;;;;5103587;27;19919;-67
2022/09/15 12:05:42;;;;;;;;;;;24.20;46.40;22.90;100296.00;;;;5079489;27;19922;-67
2022/09/15 12:08:36;;;;;;;;;;;24.30;46.50;22.90;100296.00;;;;5089898;27;20357;-67
2022/09/15 12:11:24;;;;;;;;;;;24.20;46.40;22.90;100296.00;;;;5082981;28;19912;-67
2022/09/15 12:14:35;;;;;;;;;;;24.20;46.40;22.90;100301.00;;;;5095797;27;20010;-67
2022/09/15 12:17:38;;;;;;;;;;;24.30;46.40;22.90;100298.00;;;;5097980;27;20014;-67
2022/09/15 12:20:26;;;;;;;;;;;24.20;46.30;22.90;100306.00;;;;5087327;28;19928;-67
2022/09/15 12:23:20;;;;;;;;;;;24.30;46.50;23.00;100308.00;;;;5087419;28;19951;-67
2022/09/15 12:26:22;;;;;;;;;;;24.30;46.40;22.90;100315.00;;;;5103202;27;20487;-67
2022/09/15 12:29:20;;;;;;;;;;;24.20;46.30;22.90;100310.00;;;;5080832;28;19912;-67
2022/09/15 12:32:32;;;;;;;;;;;24.20;46.20;22.90;100313.00;;;;5096597;28;19912;-67
2022/09/15 12:35:17;;;;;;;;;;;24.30;46.30;22.90;100318.00;;;;5110523;27;19916;-67
2022/09/15 12:38:03;;;;;;;;;;;24.20;46.30;22.90;100313.00;;;;5086456;27;19916;-67
2022/09/15 12:40:55;;;;;;;;;;;24.20;46.90;22.90;100304.00;;;;5094719;27;19922;-67
2022/09/15 12:43:53;;;;;;;;;;;24.30;46.20;22.90;100319.00;;;;5082781;28;20399;-67
2022/09/15 12:46:39;;;;;;;;;;;24.20;46.20;22.90;100309.00;;;;5112884;27;20249;-67
2022/09/15 12:49:44;;;;;;;;;;;24.20;46.10;22.90;100288.00;;;;5105721;27;20011;-67
2022/09/15 12:52:30;;;;;;;;;;;24.20;46.20;22.90;100299.00;;;;5097865;28;19912;-67
2022/09/15 12:55:18;;;;;;;;;;;24.20;46.20;22.90;100311.00;;;;5103420;27;19918;-67
2022/09/15 12:58:09;;;;;;;;;;;24.20;46.20;22.90;100306.00;;;;5081557;28;20416;-67
2022/09/15 13:01:21;;;;;;;;;;;24.20;46.30;22.90;100306.00;;;;5084799;27;19919;-67
2022/09/15 13:04:06;;;;;;;;;;;24.20;46.30;23.00;100301.00;;;;5096529;27;19912;-67
2022/09/15 13:07:19;;;;;;;;;;;24.20;46.30;23.00;100304.00;;;;5099837;27;20560;-67
2022/09/15 13:10:09;;;;;;;;;;;24.20;46.30;23.00;100309.00;;;;5090228;27;19915;-67
2022/09/15 13:13:19;;;;;;;;;;;24.20;46.40;23.00;100305.00;;;;5095137;28;20007;-67
2022/09/15 13:16:06;;;;;;;;;;;24.30;46.40;23.00;100311.00;;;;5086889;28;19919;-66
2022/09/15 13:19:04;;;;;;;;;;;24.30;46.40;23.00;100315.00;;;;5083128;28;19916;-67
2022/09/15 13:22:10;;;;;;;;;;;24.30;46.40;23.00;100317.00;;;;5096329;27;19915;-67
2022/09/15 13:25:14;;;;;;;;;;;24.30;46.20;23.00;100322.00;;;;5095474;28;19923;-67
2022/09/15 13:28:00;;;;;;;;;;;24.30;46.30;23.00;100322.00;;;;5093927;28;19911;-67
2022/09/15 13:30:57;;;;;;;;;;;24.30;46.20;23.00;100314.00;;;;5092274;28;19981;-67
2022/09/15 13:34:02;;;;;;;;;;;24.30;46.20;23.00;100321.00;;;;5080735;28;19915;-67
2022/09/15 13:37:11;;;;;;;;;;;24.30;46.20;23.00;100313.00;;;;5078669;28;19922;-67
2022/09/15 13:40:25;;;;;;;;;;;24.40;46.30;23.00;100315.00;;;;5076324;28;19991;-67
2022/09/15 13:43:36;;;;;;;;;;;24.40;46.30;23.00;100308.00;;;;5094578;28;20115;-67
2022/09/15 13:46:34;;;;;;;;;;;24.30;46.20;23.00;100308.00;;;;5080791;28;20089;-67